Flight Track Log - Related Links

Times and Time Zones

All times are in EDT time to prevent confusion due to time zone crossing. See the ELJ309 flight status page for this flight to view local times or setup timezone preferences in your user account.

Time Position Orientation Groundspeed Altitude Reporting Facility
EDT Latitude Longitude Course Direction KTS MPH feet Rate Location/Type
Fri 02:07:51 PM 39.7000 -75.6000 288° West 147 169 800  Level Philadelphia TRACON
Fri 02:08:57 PM 39.7167 -75.6667 288° West 218 251 1,900 905 Climbing Philadelphia TRACON
Fri 02:09:57 PM 39.7000 -75.7500 255° West 232 267 2,700 2,553 Climbing Philadelphia TRACON
Fri 02:12:05 PM 39.5928 -75.7233 169° South 167 192 9,900 2,762 Climbing Washington Center
Fri 02:13:06 PM 39.5822 -75.6183 97° East 187 215 11,400 992 Climbing Washington Center
Fri 02:14:06 PM 39.5447 -75.4975 112° Southeast 274 315 11,900 450 Climbing Washington Center
Fri 02:15:06 PM 39.4861 -75.3792 123° Southeast 342 394 12,300 1,041 Climbing Washington Center
Fri 02:16:07 PM 39.3944 -75.3094 150° Southeast 357 411 14,000 1,966 Climbing Washington Center
Fri 02:17:05 PM 39.2881 -75.2967 175° South 357 411 16,200 2,339 Climbing Washington Center
Fri 02:18:05 PM 39.1903 -75.3344 197° South 350 403 18,600 2,331 Climbing Washington Center
Fri 02:19:06 PM 39.0944 -75.3803 200° South 350 403 20,900 2,132 Climbing Washington Center
Fri 02:20:06 PM 38.9967 -75.4181 197° South 363 418 22,900 1,900 Climbing Washington Center
Fri 02:21:06 PM 38.8903 -75.4342 187° South 374 430 24,700 1,785 Climbing Washington Center
Fri 02:22:07 PM 38.7819 -75.4506 187° South 380 437 26,500 1,672 Climbing Washington Center
Fri 02:23:08 PM 38.6714 -75.4694 188° South 393 452 28,100 1,475 Climbing Washington Center
Fri 02:24:05 PM 38.5589 -75.4856 186° South 405 466 29,400 1,220 Climbing Washington Center
Fri 02:25:06 PM 38.4442 -75.4964 184° South 410 472 30,500 1,091 Climbing Washington Center
Fri 02:26:06 PM 38.3317 -75.5361 195° South 417 480 31,600 1,091 Climbing Washington Center
Fri 02:27:07 PM 38.2356 -75.6103 211° Southwest 400 460 32,700 1,091 Climbing Washington Center
Fri 02:28:07 PM 38.1461 -75.6947 217° Southwest 405 466 33,800 1,017 Climbing Washington Center
Fri 02:29:05 PM 38.0644 -75.7736 217° Southwest 410 472 34,700 857 Climbing Washington Center
Fri 02:30:06 PM 37.9747 -75.8578 216° Southwest 410 472 35,500 639 Climbing Washington Center
Fri 02:31:07 PM 37.8847 -75.9417 216° Southwest 410 472 36,000 246 Climbing Washington Center
Fri 02:32:08 PM 37.7908 -76.0281 216° Southwest 415 478 36,000  Level Washington Center
Fri 02:33:05 PM 37.6881 -76.1325 219° Southwest 426 490 36,000  Level Washington Center
Fri 02:34:05 PM 37.5981 -76.2078 214° Southwest 432 497 36,000  Level Washington Center
Fri 02:35:06 PM 37.5017 -76.2961 216° Southwest 437 503 36,000  Level Washington Center
Fri 02:36:06 PM 37.4031 -76.3867 216° Southwest 437 503 36,000  Level Washington Center
Fri 02:37:08 PM 37.3064 -76.4744 216° Southwest 437 503 36,000  Level Washington Center
Fri 02:38:05 PM 37.2058 -76.5592 214° Southwest 437 503 36,000 305 Level Washington Center
Fri 02:39:06 PM 37.0906 -76.6231 204° Southwest 442 509 36,600 694 Climbing Washington Center
Fri 02:40:06 PM 36.9772 -76.6864 204° Southwest 442 509 37,400 700 Climbing Washington Center
Fri 02:41:06 PM 36.8681 -76.7497 205° Southwest 442 509 38,000 298 Climbing Washington Center
Fri 02:42:07 PM 36.7569 -76.8103 204° Southwest 442 509 38,000  Level Washington Center
Fri 02:43:05 PM 36.6436 -76.8708 203° Southwest 442 509 38,000  Level Washington Center
Fri 02:44:06 PM 36.5325 -76.9361 205° Southwest 442 509 38,000  Level Washington Center
Fri 02:45:06 PM 36.4064 -77.0036 203° Southwest 442 509 38,000  Level Washington Center
Fri 02:46:06 PM 36.3036 -77.0611 204° Southwest 447 514 38,000  Level Washington Center
Fri 02:47:07 PM 36.1881 -77.1208 203° Southwest 452 520 38,000  Level Washington Center
Fri 02:48:07 PM 36.0661 -77.1878 204° Southwest 446 513 38,000  Level Washington Center
Fri 02:49:06 PM 35.9444 -77.2342 197° South 446 513 38,000  Level Washington Center
Fri 02:50:06 PM 35.8458 -77.2731 198° South 451 519 38,000  Level Washington Center
Fri 02:51:07 PM 35.7139 -77.3214 197° South 456 525 38,000  Level Washington Center
Fri 02:52:07 PM 35.5981 -77.3828 203° Southwest 461 531 38,000  Level Washington Center
Fri 02:53:08 PM 35.4947 -77.4644 213° Southwest 448 516 38,000  Level Washington Center
Fri 02:54:06 PM 35.3911 -77.5411 211° Southwest 448 516 38,000  Level Washington Center
Fri 02:55:06 PM 35.2978 -77.6331 219° Southwest 443 510 38,000  Level Washington Center
Fri 02:56:07 PM 35.2064 -77.7272 220° Southwest 438 504 38,000  Level Washington Center
Fri 02:57:07 PM 35.1150 -77.8214 220° Southwest 433 498 38,000  Level Washington Center
Fri 02:58:08 PM 35.0256 -77.9153 221° Southwest 433 498 38,000  Level Washington Center
Fri 02:59:05 PM 34.9342 -78.0064 219° Southwest 433 498 38,000 -23 Level Washington Center
Fri 03:02:28 PM 34.6219 -78.3389 221° Southwest 415 478 37,900  Descending Jacksonville Center
Fri 03:03:28 PM 34.5372 -78.4189 218° Southwest 424 488 38,000 50 Climbing Jacksonville Center
Fri 03:04:28 PM 34.4506 -78.5064 220° Southwest 424 488 38,000  Level Jacksonville Center
Fri 03:05:28 PM 34.3619 -78.5964 220° Southwest 424 488 38,000  Level Jacksonville Center
Fri 03:06:28 PM 34.2753 -78.6836 220° Southwest 418 481 38,000  Level Jacksonville Center
Fri 03:07:28 PM 34.1883 -78.7706 220° Southwest 413 475 38,000  Level Jacksonville Center
Fri 03:08:28 PM 34.1014 -78.8550 219° Southwest 413 475 38,000  Level Jacksonville Center
Fri 03:09:28 PM 34.0167 -78.9417 220° Southwest 413 475 38,000  Level Jacksonville Center
Fri 03:10:28 PM 33.9275 -79.0258 218° Southwest 413 475 38,000  Level Jacksonville Center
Fri 03:11:28 PM 33.8403 -79.1144 220° Southwest 413 475 38,000  Level Jacksonville Center
Fri 03:12:28 PM 33.7531 -79.1983 219° Southwest 413 475 38,000  Level Jacksonville Center
Fri 03:13:28 PM 33.6658 -79.2867 220° Southwest 407 468 38,000  Level Jacksonville Center
Fri 03:14:28 PM 33.5767 -79.3750 220° Southwest 407 468 38,000  Level Jacksonville Center
Fri 03:15:28 PM 33.4892 -79.4583 218° Southwest 407 468 38,000 -50 Level Jacksonville Center
Fri 03:16:28 PM 33.4017 -79.5436 219° Southwest 415 478 37,900  Descending Jacksonville Center
Fri 03:17:28 PM 33.3164 -79.6289 220° Southwest 415 478 38,000 50 Climbing Jacksonville Center
Fri 03:18:28 PM 33.2289 -79.7142 219° Southwest 415 478 38,000  Level Jacksonville Center
Fri 03:19:28 PM 33.1411 -79.7967 218° Southwest 415 478 38,000  Level Jacksonville Center
Fri 03:20:28 PM 33.0533 -79.8814 219° Southwest 415 478 38,000 300 Level Jacksonville Center
Fri 03:21:28 PM 32.9656 -79.9636 218° Southwest 415 478 38,600 750 Climbing Jacksonville Center
Fri 03:22:28 PM 32.8778 -80.0456 218° Southwest 415 478 39,500 650 Climbing Jacksonville Center
Fri 03:23:28 PM 32.7833 -80.1178 213° Southwest 410 472 39,900 250 Climbing Jacksonville Center
Fri 03:24:28 PM 32.6969 -80.1822 212° Southwest 410 472 40,000 50 Climbing Jacksonville Center
Fri 03:25:28 PM 32.5983 -80.2542 212° Southwest 410 472 40,000  Level Jacksonville Center
Fri 03:26:28 PM 32.4997 -80.3283 212° Southwest 421 484 40,000  Level Jacksonville Center
Fri 03:27:28 PM 32.4031 -80.4000 212° Southwest 421 484 40,000  Level Jacksonville Center
Fri 03:28:28 PM 32.3042 -80.4739 212° Southwest 426 490 40,000 -50 Level Jacksonville Center
Fri 03:29:28 PM 32.2031 -80.5406 209° Southwest 426 490 39,900  Descending Jacksonville Center
Fri 03:30:28 PM 32.1083 -80.6117 212° Southwest 419 482 40,000 50 Climbing Jacksonville Center
Fri 03:31:28 PM 31.9992 -80.6878 211° Southwest 425 489 40,000  Level Jacksonville Center
Fri 03:32:28 PM 31.9125 -80.7511 212° Southwest 420 483 40,000  Level Jacksonville Center
Fri 03:33:28 PM 31.8031 -80.8269 210° Southwest 420 483 40,000  Level Jacksonville Center
Fri 03:34:28 PM 31.7061 -80.8925 210° Southwest 420 483 40,000  Level Jacksonville Center
Fri 03:35:28 PM 31.6258 -80.9650 218° Southwest 411 473 40,000  Level Jacksonville Center
Fri 03:36:28 PM 31.5394 -81.0644 224° Southwest 403 464 40,000  Level Jacksonville Center
Fri 03:37:28 PM 31.4594 -81.1511 223° Southwest 398 458 40,000  Level Jacksonville Center
Fri 03:38:28 PM 31.3894 -81.2303 224° Southwest 398 458 40,000  Level Jacksonville Center
Fri 03:39:28 PM 31.3069 -81.3242 224° Southwest 403 464 40,000 50 Level Jacksonville Center
Fri 03:40:28 PM 31.2289 -81.4178 226° Southwest 403 464 40,100 400 Climbing Jacksonville Center
Fri 03:41:28 PM 31.1464 -81.5017 221° Southwest 403 464 40,800 450 Climbing Jacksonville Center
Fri 03:42:28 PM 31.0678 -81.5903 224° Southwest 398 458 41,000 100 Climbing Jacksonville Center
Fri 03:43:28 PM 30.9872 -81.6783 223° Southwest 398 458 41,000  Level Jacksonville Center
Fri 03:44:28 PM 30.9025 -81.7717 223° Southwest 403 464 41,000  Level Jacksonville Center
Fri 03:45:28 PM 30.8197 -81.8644 224° Southwest 408 470 41,000  Level Jacksonville Center
Fri 03:46:28 PM 30.7369 -81.9547 223° Southwest 408 470 41,000  Level Jacksonville Center
Fri 03:47:28 PM 30.6542 -82.0475 224° Southwest 413 475 41,000  Level Jacksonville Center
Fri 03:48:28 PM 30.5481 -82.1039 205° Southwest 418 481 41,000  Level Jacksonville Center
Fri 03:49:28 PM 30.4250 -82.1169 185° South 418 481 41,000  Level Jacksonville Center
Fri 03:50:28 PM 30.2975 -82.1156 179° South 442 509 41,000 -50 Level Jacksonville Center
Fri 03:51:28 PM 30.1722 -82.1164 180° South 447 514 40,900 -450 Descending Jacksonville Center
Fri 03:52:28 PM 30.0450 -82.1175 180° South 447 514 40,100 -1,300 Descending Jacksonville Center
Fri 03:53:28 PM 29.9050 -82.1211 181° South 456 525 38,300 -2,600 Descending Jacksonville Center
Fri 03:54:28 PM 29.7839 -82.1197 179° South 456 525 34,900 -3,200 Descending Jacksonville Center
Fri 03:55:28 PM 29.6711 -82.1181 179° South 450 518 31,900 -3,250 Descending Jacksonville Center
Fri 03:56:28 PM 29.5461 -82.1167 179° South 450 518 28,400 -2,800 Descending Jacksonville Center
Fri 03:57:28 PM 29.4186 -82.1178 180° South 455 524 26,300 -1,900 Descending Jacksonville Center
Fri 03:58:28 PM 29.3017 -82.1164 179° South 449 517 24,600 -1,900 Descending Jacksonville Center
Fri 03:59:28 PM 29.1806 -82.1172 180° South 438 504 22,500 -2,200 Descending Jacksonville Center
Fri 04:00:28 PM 29.0639 -82.1181 180° South 432 497 20,200 -2,250 Descending Jacksonville Center
Fri 04:01:28 PM 28.9364 -82.1167 179° South 432 497 18,000 -2,129 Descending Jacksonville Center
Fri 04:03:03 PM 28.7500 -82.1167 180° South 405 466 14,700 -1,935 Descending Tampa TRACON
Fri 04:04:03 PM 28.6500 -82.1167 180° South 403 464 13,000 -1,238 Descending Tampa TRACON
Fri 04:05:09 PM 28.5333 -82.1000 173° South 387 445 12,100 -810 Descending Tampa TRACON
Fri 04:06:09 PM 28.4167 -82.0833 173° South 382 440 11,300 -550 Descending Tampa TRACON
Fri 04:07:09 PM 28.3167 -82.1167 196° South 371 427 11,000 -149 Descending Tampa TRACON
Fri 04:08:10 PM 28.2167 -82.1333 188° South 379 436 11,000 -446 Level Tampa TRACON
Fri 04:09:10 PM 28.1167 -82.1500 188° South 350 403 10,100 -1,211 Descending Tampa TRACON
Fri 04:10:04 PM 28.0333 -82.1667 190° South 292 336 8,700 -1,750 Descending Tampa TRACON
Fri 04:11:10 PM 27.9667 -82.1833 192° South 264 304 6,600 -1,286 Descending Tampa TRACON
Fri 04:12:10 PM 27.8833 -82.2000 190° South 278 320 6,000 -300 Descending Tampa TRACON
Fri 04:13:10 PM 27.8000 -82.2167 190° South 285 328 6,000 -50 Level Tampa TRACON
Fri 04:14:11 PM 27.7333 -82.2667 214° Southwest 282 325 5,900 -50 Descending Tampa TRACON
Fri 04:15:10 PM 27.6833 -82.3167 222° Southwest 289 333 5,900 -211 Level Tampa TRACON
Fri 04:16:05 PM 27.6167 -82.3500 204° Southwest 283 326 5,500 -522 Descending Tampa TRACON
Fri 04:17:05 PM 27.5500 -82.3667 192° South 265 305 4,900 -1,000 Descending Tampa TRACON
Fri 04:18:11 PM 27.4667 -82.4000 200° South 274 315 3,400 -950 Descending Tampa TRACON
Fri 04:19:05 PM 27.4000 -82.4333 204° Southwest 258 297 3,000 -211 Descending Tampa TRACON
Fri 04:20:05 PM 27.3333 -82.4667 204° Southwest 258 297 3,000 -50 Level Tampa TRACON
Fri 04:21:05 PM 27.2667 -82.4833 193° South 263 303 2,900 -450 Descending Tampa TRACON
Fri 04:22:05 PM 27.2000 -82.4833 180° South 259 298 2,100 -800 Descending Tampa TRACON

Login

Don't have an account? Register now (free) for customized features, flight alerts, and more!